createdAt,value
2022-11-23T00:01:17.408Z,2.90
2022-11-23T00:02:54.504Z,2.90
2022-11-23T00:04:27.545Z,2.90
2022-11-23T00:06:02.370Z,2.90
2022-11-23T00:07:35.453Z,2.80
2022-11-23T00:09:09.164Z,2.90
2022-11-23T00:10:42.338Z,2.90
2022-11-23T00:12:14.386Z,2.90
2022-11-23T00:13:49.227Z,2.90
2022-11-23T00:15:22.230Z,2.80
2022-11-23T00:16:55.492Z,2.80
2022-11-23T00:18:27.572Z,2.90
2022-11-23T00:20:00.818Z,2.80
2022-11-23T00:21:34.446Z,2.80
2022-11-23T00:23:06.517Z,2.70
2022-11-23T00:24:39.737Z,2.70
2022-11-23T00:26:14.678Z,2.70
2022-11-23T00:27:48.783Z,2.60
2022-11-23T00:29:23.557Z,2.60
2022-11-23T00:30:56.749Z,2.60
2022-11-23T00:32:30.689Z,2.60
2022-11-23T00:34:04.870Z,2.60
2022-11-23T00:35:37.102Z,2.60
2022-11-23T00:37:10.264Z,2.50
2022-11-23T00:38:44.961Z,2.50
2022-11-23T00:40:17.232Z,2.50
2022-11-23T00:41:50.374Z,2.50
2022-11-23T00:43:22.416Z,2.50
2022-11-23T00:44:56.851Z,2.50
2022-11-23T00:46:30.292Z,2.40
2022-11-23T00:48:02.593Z,2.50
2022-11-23T00:49:35.638Z,2.40
2022-11-23T00:51:09.892Z,2.40
2022-11-23T00:52:42.924Z,2.40
2022-11-23T00:54:16.209Z,2.40
2022-11-23T00:55:52.713Z,2.40
2022-11-23T00:57:26.087Z,2.40
2022-11-23T00:59:01.193Z,2.40
2022-11-23T01:00:35.621Z,2.50
2022-11-23T01:02:09.955Z,2.50
2022-11-23T01:03:45.768Z,2.50
2022-11-23T01:05:18.998Z,2.50
2022-11-23T01:06:56.191Z,2.50
2022-11-23T01:08:29.241Z,2.50
2022-11-23T01:10:02.295Z,2.50
2022-11-23T01:11:35.685Z,2.50
2022-11-23T01:13:08.734Z,2.50
2022-11-23T01:14:43.346Z,2.40
2022-11-23T01:16:24.293Z,2.40
2022-11-23T01:17:56.639Z,2.40
2022-11-23T01:19:30.752Z,2.30
2022-11-23T01:21:04.087Z,2.20
2022-11-23T01:22:37.287Z,2.20
2022-11-23T01:24:12.068Z,2.10
2022-11-23T01:25:45.197Z,2.10
2022-11-23T01:27:18.274Z,2.00
2022-11-23T01:28:51.949Z,2.00
2022-11-23T01:30:24.706Z,1.90
2022-11-23T01:31:59.258Z,1.90
2022-11-23T01:33:32.309Z,1.90
2022-11-23T01:35:05.725Z,1.90
2022-11-23T01:36:39.040Z,1.80
2022-11-23T01:38:17.847Z,1.80
2022-11-23T01:39:51.349Z,1.80
2022-11-23T01:41:26.526Z,1.80
2022-11-23T01:43:01.029Z,1.80
2022-11-23T01:44:36.655Z,1.80
2022-11-23T01:46:10.153Z,1.70
2022-11-23T01:47:43.705Z,1.70
2022-11-23T01:49:17.282Z,1.70
2022-11-23T01:50:52.817Z,1.80
2022-11-23T01:52:28.099Z,1.70
2022-11-23T01:54:04.775Z,1.70
2022-11-23T01:55:38.622Z,1.70
2022-11-23T01:57:15.998Z,1.70
2022-11-23T01:58:55.069Z,1.60
2022-11-23T02:00:27.702Z,1.60
2022-11-23T02:02:01.987Z,1.50
2022-11-23T02:03:38.566Z,1.50
2022-11-23T02:05:18.170Z,1.50
2022-11-23T02:06:52.183Z,1.40
2022-11-23T02:08:27.160Z,1.40
2022-11-23T02:10:00.796Z,1.40
2022-11-23T02:11:34.168Z,1.30
2022-11-23T02:13:11.357Z,1.40
2022-11-23T02:14:44.856Z,1.40
2022-11-23T02:16:19.250Z,1.40
2022-11-23T02:17:52.792Z,1.30
2022-11-23T02:19:37.839Z,1.30
2022-11-23T02:21:11.289Z,1.40
2022-11-23T02:22:53.342Z,1.40
2022-11-23T02:24:32.418Z,1.40
2022-11-23T02:26:10.687Z,1.40
2022-11-23T02:27:47.097Z,1.40
2022-11-23T02:29:24.313Z,1.40
2022-11-23T02:30:57.751Z,1.40
2022-11-23T02:32:31.817Z,1.30
2022-11-23T02:34:04.931Z,1.30
2022-11-23T02:35:48.862Z,1.30
2022-11-23T02:37:21.953Z,1.30
2022-11-23T02:39:02.519Z,1.30
2022-11-23T02:40:36.953Z,1.30
2022-11-23T02:42:11.780Z,1.30
2022-11-23T02:43:43.957Z,1.30
2022-11-23T02:45:24.029Z,1.30
2022-11-23T02:46:56.365Z,1.30
2022-11-23T02:48:29.755Z,1.20
2022-11-23T02:50:02.779Z,1.20
2022-11-23T02:51:35.824Z,1.20
2022-11-23T02:53:09.200Z,1.20
2022-11-23T02:54:42.300Z,1.20
2022-11-23T02:56:15.341Z,1.20
2022-11-23T02:57:49.805Z,1.20
2022-11-23T02:59:22.995Z,1.20
2022-11-23T03:00:57.800Z,1.30
2022-11-23T03:02:30.936Z,1.40
2022-11-23T03:04:04.134Z,1.30
2022-11-23T03:05:37.219Z,1.30
2022-11-23T03:07:11.205Z,1.40
2022-11-23T03:08:44.664Z,1.40
2022-11-23T03:10:17.900Z,1.40
2022-11-23T03:11:51.036Z,1.40
2022-11-23T03:13:25.494Z,1.40
2022-11-23T03:14:58.719Z,1.40
2022-11-23T03:16:31.770Z,1.40
2022-11-23T03:18:05.997Z,1.50
2022-11-23T03:19:39.622Z,1.50
2022-11-23T03:21:12.880Z,1.50
2022-11-23T03:22:46.287Z,1.50
2022-11-23T03:24:19.842Z,1.50
2022-11-23T03:25:57.311Z,1.50
2022-11-23T03:27:33.584Z,1.50
2022-11-23T03:29:08.479Z,1.50
2022-11-23T03:30:44.117Z,1.50
2022-11-23T03:32:17.318Z,1.50
2022-11-23T03:33:53.715Z,1.50
2022-11-23T03:35:27.267Z,1.60
2022-11-23T03:37:20.316Z,1.60
2022-11-23T03:38:54.074Z,1.60
2022-11-23T03:41:05.560Z,1.60
2022-11-23T03:42:59.028Z,1.60
2022-11-23T03:44:33.550Z,1.60
2022-11-23T03:46:05.810Z,1.60
2022-11-23T03:47:38.979Z,1.60
2022-11-23T03:49:11.098Z,1.60
2022-11-23T03:50:45.472Z,1.60
2022-11-23T03:52:18.648Z,1.50
2022-11-23T03:53:52.353Z,1.40
2022-11-23T03:55:25.578Z,1.30
2022-11-23T03:56:58.996Z,1.30
2022-11-23T03:58:32.123Z,1.30
2022-11-23T04:00:08.416Z,1.30
2022-11-23T04:01:46.413Z,1.40
2022-11-23T04:03:26.544Z,1.50
2022-11-23T04:05:19.692Z,1.50
2022-11-23T04:07:25.213Z,1.50
2022-11-23T04:09:02.522Z,1.50
2022-11-23T04:10:57.799Z,1.50
2022-11-23T04:12:40.797Z,1.40
2022-11-23T04:14:14.189Z,1.30
2022-11-23T04:15:48.655Z,1.30
2022-11-23T04:17:21.702Z,1.20
2022-11-23T04:18:55.059Z,1.30
2022-11-23T04:20:28.790Z,1.30
2022-11-23T04:22:01.952Z,1.40
2022-11-23T04:23:40.648Z,1.50
2022-11-23T04:25:15.585Z,1.50
2022-11-23T04:26:48.717Z,1.50
2022-11-23T04:28:21.836Z,1.50
2022-11-23T04:29:55.493Z,1.50
2022-11-23T04:31:30.701Z,1.50
2022-11-23T04:33:16.298Z,1.50
2022-11-23T04:34:50.441Z,1.60
2022-11-23T04:36:23.511Z,1.60
2022-11-23T04:37:56.603Z,1.60
2022-11-23T04:39:33.013Z,1.60
2022-11-23T04:41:26.715Z,1.60
2022-11-23T04:43:01.887Z,1.60
2022-11-23T04:44:38.300Z,1.60
2022-11-23T04:46:13.311Z,1.50
2022-11-23T04:47:47.893Z,1.50
2022-11-23T04:49:21.760Z,1.50
2022-11-23T04:50:55.961Z,1.50
2022-11-23T04:52:35.919Z,1.50
2022-11-23T04:54:12.098Z,1.50
2022-11-23T04:55:53.024Z,1.60
2022-11-23T04:57:26.160Z,1.60
2022-11-23T04:58:59.446Z,1.60
2022-11-23T05:00:32.869Z,1.70
2022-11-23T05:02:07.017Z,1.70
2022-11-23T05:03:44.133Z,1.70
2022-11-23T05:05:18.802Z,1.70
2022-11-23T05:06:51.893Z,1.70
2022-11-23T05:08:25.021Z,1.70
2022-11-23T05:10:21.093Z,1.70
2022-11-23T05:11:54.584Z,1.80
2022-11-23T05:13:27.674Z,1.80
2022-11-23T05:15:00.941Z,1.80
2022-11-23T05:16:40.346Z,1.80
2022-11-23T05:18:13.898Z,1.80
2022-11-23T05:19:47.490Z,1.90
2022-11-23T05:21:20.963Z,1.80
2022-11-23T05:22:55.112Z,1.90
2022-11-23T05:24:30.705Z,1.90
2022-11-23T05:26:11.401Z,1.90
2022-11-23T05:27:44.106Z,1.90
2022-11-23T05:29:17.857Z,1.90
2022-11-23T05:30:51.951Z,1.90
2022-11-23T05:32:25.366Z,1.90
2022-11-23T05:33:59.115Z,1.90
2022-11-23T05:35:44.267Z,1.90
2022-11-23T05:37:17.973Z,1.90
2022-11-23T05:38:58.710Z,1.90
2022-11-23T05:40:36.878Z,1.90
2022-11-23T05:42:10.863Z,1.90
2022-11-23T05:43:47.437Z,1.90
2022-11-23T05:45:26.360Z,1.90
2022-11-23T05:47:02.009Z,1.80
2022-11-23T05:48:37.930Z,1.90
2022-11-23T05:50:15.662Z,1.90
2022-11-23T05:51:52.290Z,1.80
2022-11-23T05:53:25.457Z,1.80
2022-11-23T05:55:05.036Z,1.80
2022-11-23T05:56:40.392Z,1.90
2022-11-23T05:58:21.280Z,1.90
2022-11-23T05:59:54.646Z,1.80
2022-11-23T06:01:33.939Z,1.80
2022-11-23T06:03:08.640Z,1.80
2022-11-23T06:04:40.723Z,1.70
2022-11-23T06:06:17.357Z,1.70
2022-11-23T06:07:55.010Z,1.70
2022-11-23T06:09:33.031Z,1.70
2022-11-23T06:11:12.056Z,1.70
2022-11-23T06:12:45.722Z,1.70
2022-11-23T06:14:21.278Z,1.60
2022-11-23T06:15:54.554Z,1.60
2022-11-23T06:17:34.169Z,1.70
2022-11-23T06:19:10.139Z,1.70
2022-11-23T06:20:46.007Z,1.70
2022-11-23T06:22:19.108Z,1.70
2022-11-23T06:24:07.338Z,1.70
2022-11-23T06:25:40.932Z,1.70
2022-11-23T06:27:22.104Z,1.70
2022-11-23T06:28:56.888Z,1.70
2022-11-23T06:30:30.865Z,1.70
2022-11-23T06:32:09.447Z,1.70
2022-11-23T06:33:42.594Z,1.80
2022-11-23T06:35:16.648Z,1.80
2022-11-23T06:36:50.629Z,1.80
2022-11-23T06:38:23.836Z,1.70
2022-11-23T06:40:07.105Z,1.70
2022-11-23T06:41:40.569Z,1.70
2022-11-23T06:43:13.627Z,1.70
2022-11-23T06:44:49.620Z,1.70
2022-11-23T06:46:22.773Z,1.70
2022-11-23T06:47:57.419Z,1.70
2022-11-23T06:49:31.227Z,1.70
2022-11-23T06:51:19.280Z,1.70
2022-11-23T06:52:57.747Z,1.70
2022-11-23T06:54:42.392Z,1.80
2022-11-23T06:56:16.965Z,1.80
2022-11-23T06:57:50.139Z,1.90
2022-11-23T06:59:23.543Z,1.90
2022-11-23T07:01:01.840Z,1.90
2022-11-23T07:02:38.247Z,2.00
2022-11-23T07:04:11.577Z,1.90
2022-11-23T07:05:52.559Z,2.00
2022-11-23T07:07:28.308Z,2.00
2022-11-23T07:09:14.284Z,2.00
2022-11-23T07:11:07.661Z,2.00
2022-11-23T07:12:42.129Z,2.10
2022-11-23T07:14:15.663Z,2.10
2022-11-23T07:15:52.322Z,2.10
2022-11-23T07:17:25.460Z,2.20
2022-11-23T07:18:59.361Z,2.10
2022-11-23T07:20:32.525Z,2.20
2022-11-23T07:22:05.658Z,2.20
2022-11-23T07:23:41.452Z,2.30
2022-11-23T07:25:18.347Z,2.30
2022-11-23T07:26:52.301Z,2.40
2022-11-23T07:28:27.235Z,2.40
2022-11-23T07:30:00.364Z,2.50
2022-11-23T07:31:33.440Z,2.50
2022-11-23T07:33:09.343Z,2.50
2022-11-23T07:34:43.485Z,2.50
2022-11-23T07:36:16.610Z,2.60
2022-11-23T07:37:51.524Z,2.60
2022-11-23T07:39:41.868Z,2.70
2022-11-23T07:41:17.936Z,2.70
2022-11-23T07:43:01.856Z,2.70
2022-11-23T07:44:36.445Z,2.80
2022-11-23T07:46:11.581Z,2.90
2022-11-23T07:47:44.790Z,2.90
2022-11-23T07:49:17.874Z,3.00
2022-11-23T07:50:53.842Z,2.90
2022-11-23T07:52:27.375Z,2.90
2022-11-23T07:54:00.466Z,2.90
2022-11-23T07:55:34.155Z,2.90
2022-11-23T07:57:07.204Z,2.90
2022-11-23T07:58:40.306Z,2.90
2022-11-23T08:00:16.256Z,2.90
2022-11-23T08:01:53.105Z,2.90
2022-11-23T08:03:29.483Z,2.80
2022-11-23T08:05:03.168Z,2.80
2022-11-23T08:06:36.241Z,2.80
2022-11-23T08:08:09.427Z,2.80
2022-11-23T08:09:42.766Z,2.90
2022-11-23T08:11:18.299Z,2.90
2022-11-23T08:12:51.396Z,2.90
2022-11-23T08:14:24.815Z,3.00
2022-11-23T08:15:59.754Z,3.00
2022-11-23T08:17:32.988Z,3.10
2022-11-23T08:19:06.193Z,3.20
2022-11-23T08:20:39.299Z,3.30
2022-11-23T08:22:15.597Z,3.40
2022-11-23T08:23:49.322Z,3.50
2022-11-23T08:25:22.439Z,3.60
2022-11-23T08:26:55.560Z,3.60
2022-11-23T08:28:28.620Z,3.70
2022-11-23T08:30:01.734Z,3.80
2022-11-23T08:31:36.177Z,3.80
2022-11-23T08:33:10.412Z,3.90
2022-11-23T08:34:45.006Z,3.90
2022-11-23T08:36:18.346Z,4.00
2022-11-23T08:37:51.422Z,4.00
2022-11-23T08:39:24.622Z,4.10
2022-11-23T08:41:00.095Z,4.10
2022-11-23T08:42:33.185Z,4.10
2022-11-23T08:44:08.394Z,4.20
2022-11-23T08:45:41.464Z,4.30
2022-11-23T08:47:15.917Z,4.40
2022-11-23T08:48:49.071Z,4.40
2022-11-23T08:50:22.660Z,4.40
2022-11-23T08:51:55.812Z,4.40
2022-11-23T08:53:29.078Z,4.50
2022-11-23T08:55:02.426Z,4.60
2022-11-23T08:56:35.524Z,4.60
2022-11-23T08:58:13.106Z,4.60
2022-11-23T08:59:46.748Z,4.70
2022-11-23T09:01:20.097Z,4.80
2022-11-23T09:02:55.115Z,4.90
2022-11-23T09:04:30.842Z,5.00
2022-11-23T09:06:04.034Z,5.10
2022-11-23T09:07:37.240Z,5.20
2022-11-23T09:09:10.983Z,5.30
2022-11-23T09:10:44.790Z,5.30
2022-11-23T09:12:17.891Z,5.40
2022-11-23T09:13:51.001Z,5.50
2022-11-23T09:15:24.276Z,5.50
2022-11-23T09:16:57.394Z,5.60
2022-11-23T09:18:33.136Z,5.60
2022-11-23T09:20:07.395Z,5.60
2022-11-23T09:21:42.263Z,5.60
2022-11-23T09:23:15.364Z,5.50
2022-11-23T09:24:48.456Z,5.50
2022-11-23T09:26:21.579Z,5.60
2022-11-23T09:27:59.251Z,5.60
2022-11-23T09:29:32.441Z,5.70
2022-11-23T09:31:06.281Z,5.70
2022-11-23T09:32:39.587Z,5.80
2022-11-23T09:34:14.902Z,5.80
2022-11-23T09:35:47.990Z,5.90
2022-11-23T09:37:21.133Z,5.90
2022-11-23T09:38:56.932Z,6.00
2022-11-23T09:40:32.894Z,6.00
2022-11-23T09:42:22.408Z,6.10
2022-11-23T09:44:03.326Z,6.10
2022-11-23T09:45:41.556Z,6.20
2022-11-23T09:47:31.579Z,6.30
2022-11-23T09:49:16.787Z,6.30
2022-11-23T09:50:54.004Z,6.40
2022-11-23T09:52:27.462Z,6.50
2022-11-23T09:54:04.108Z,6.50
2022-11-23T09:55:42.057Z,6.70
2022-11-23T09:57:19.262Z,6.90
2022-11-23T09:58:55.875Z,7.00
2022-11-23T10:00:31.116Z,7.20
2022-11-23T10:02:04.633Z,7.30
2022-11-23T10:03:44.042Z,7.40
2022-11-23T10:05:24.752Z,7.60
2022-11-23T10:07:04.823Z,7.60
2022-11-23T10:08:47.485Z,7.70
2022-11-23T10:13:46.270Z,7.80
2022-11-23T10:15:24.470Z,7.70
2022-11-23T10:17:04.431Z,7.70
2022-11-23T10:18:47.468Z,7.80
2022-11-23T10:20:47.577Z,7.70
2022-11-23T10:22:27.539Z,7.70
2022-11-23T10:24:12.512Z,7.60
2022-11-23T10:25:49.649Z,7.80
2022-11-23T10:27:25.069Z,7.90
2022-11-23T10:29:03.801Z,8.10
2022-11-23T10:30:37.436Z,8.20
2022-11-23T10:32:23.870Z,8.30
2022-11-23T10:34:03.970Z,8.30
2022-11-23T10:35:39.103Z,8.30
2022-11-23T10:37:14.267Z,8.30
2022-11-23T10:38:51.077Z,8.40
2022-11-23T10:40:26.975Z,8.60
2022-11-23T10:42:04.262Z,8.60
2022-11-23T10:43:42.820Z,8.50
2022-11-23T10:45:24.381Z,8.50
2022-11-23T10:46:57.711Z,8.60
2022-11-23T10:48:36.187Z,8.90
2022-11-23T10:50:24.657Z,9.00
2022-11-23T10:52:03.577Z,9.10
2022-11-23T10:53:37.230Z,9.30
2022-11-23T10:55:15.393Z,9.80
2022-11-23T10:56:50.311Z,10.10
2022-11-23T10:58:28.985Z,10.20
2022-11-23T11:00:04.999Z,10.70
2022-11-23T11:01:38.138Z,11.10
2022-11-23T11:03:25.199Z,11.40
2022-11-23T11:05:40.210Z,11.60
2022-11-23T11:07:25.664Z,11.60
2022-11-23T11:09:03.457Z,11.60
2022-11-23T11:10:40.497Z,11.70
2022-11-23T11:12:17.990Z,11.90
2022-11-23T11:13:51.564Z,12.50
2022-11-23T11:15:24.635Z,13.00
2022-11-23T11:16:59.007Z,13.30
2022-11-23T11:18:35.036Z,12.70
2022-11-23T11:20:31.338Z,12.30
2022-11-23T11:22:25.550Z,11.70
2022-11-23T11:24:03.583Z,11.50
2022-11-23T11:25:38.871Z,11.10
2022-11-23T11:27:16.823Z,11.00
2022-11-23T11:28:51.544Z,10.80
2022-11-23T11:30:26.476Z,10.70
2022-11-23T11:32:01.894Z,10.70
2022-11-23T11:33:41.547Z,10.70
2022-11-23T11:35:21.046Z,10.80
2022-11-23T11:37:03.611Z,10.90
2022-11-23T11:38:38.858Z,10.70
2022-11-23T11:40:20.972Z,10.70
2022-11-23T11:41:57.101Z,10.60
2022-11-23T11:43:39.652Z,10.40
2022-11-23T11:45:19.420Z,10.50
2022-11-23T11:46:58.801Z,10.40
2022-11-23T11:48:35.290Z,10.50
2022-11-23T11:50:21.194Z,10.40
2022-11-23T11:52:00.196Z,10.50
2022-11-23T11:53:40.558Z,10.40
2022-11-23T11:55:19.747Z,10.20
2022-11-23T11:56:55.153Z,10.10
2022-11-23T11:58:28.388Z,10.20
2022-11-23T12:00:06.298Z,10.20
2022-11-23T12:01:44.820Z,10.30
2022-11-23T12:03:30.787Z,10.40
2022-11-23T12:05:13.290Z,10.50
2022-11-23T12:06:52.828Z,10.50
2022-11-23T12:08:34.188Z,10.80
2022-11-23T12:10:13.430Z,11.00
2022-11-23T12:11:47.945Z,11.00
2022-11-23T12:13:24.029Z,11.10
2022-11-23T12:14:58.246Z,11.10
2022-11-23T12:16:40.921Z,11.10
2022-11-23T12:18:27.018Z,11.30
2022-11-23T12:20:08.834Z,11.90
2022-11-23T12:22:03.736Z,12.20
2022-11-23T12:23:51.409Z,12.30
2022-11-23T12:25:33.245Z,12.50
2022-11-23T12:27:17.242Z,12.70
2022-11-23T12:29:15.941Z,12.90
2022-11-23T12:30:55.437Z,12.80
2022-11-23T12:32:42.000Z,12.90
2022-11-23T12:34:37.996Z,12.90
2022-11-23T12:36:25.925Z,12.70
2022-11-23T12:38:09.055Z,12.40
2022-11-23T12:40:19.623Z,11.90
2022-11-23T12:41:59.816Z,11.00
2022-11-23T12:43:45.871Z,10.50
2022-11-23T12:45:34.808Z,10.30
2022-11-23T12:47:17.697Z,10.00
2022-11-23T12:49:02.344Z,9.90
2022-11-23T12:50:41.474Z,9.80
2022-11-23T12:52:31.831Z,9.80
2022-11-23T12:54:19.379Z,9.80
2022-11-23T12:56:01.747Z,9.60
2022-11-23T12:57:39.295Z,9.60
2022-11-23T12:59:15.162Z,9.50
2022-11-23T13:00:52.554Z,9.40
2022-11-23T13:02:54.347Z,9.50
2022-11-23T13:04:59.059Z,9.50
2022-11-23T13:09:33.499Z,9.20
2022-11-23T13:11:19.816Z,9.00
2022-11-23T13:13:15.375Z,8.70
2022-11-23T13:15:01.484Z,8.60
2022-11-23T13:16:58.025Z,8.30
2022-11-23T13:18:44.537Z,8.10
2022-11-23T13:20:41.961Z,8.00
2022-11-23T13:22:19.619Z,7.90
2022-11-23T13:23:52.990Z,7.90
2022-11-23T13:25:28.085Z,7.90
2022-11-23T13:27:42.864Z,7.90
2022-11-23T13:29:58.613Z,7.80
2022-11-23T13:31:33.618Z,7.80
2022-11-23T13:33:30.429Z,7.80
2022-11-23T13:35:44.629Z,7.70
2022-11-23T13:37:24.115Z,7.70
2022-11-23T13:38:57.885Z,7.70
2022-11-23T13:40:32.659Z,7.60
2022-11-23T13:42:07.122Z,7.60
2022-11-23T13:43:40.659Z,7.60
2022-11-23T13:45:34.271Z,7.60
2022-11-23T13:47:19.542Z,7.50
2022-11-23T13:48:57.889Z,7.40
2022-11-23T13:50:31.468Z,7.30
2022-11-23T13:52:28.470Z,7.20
2022-11-23T13:54:04.784Z,7.20
2022-11-23T13:55:39.640Z,7.10
2022-11-23T13:57:14.831Z,7.10
2022-11-23T13:58:55.740Z,7.10
2022-11-23T14:00:50.628Z,7.00
2022-11-23T14:02:29.003Z,7.00
2022-11-23T14:04:21.251Z,6.90
2022-11-23T14:06:00.065Z,6.90
2022-11-23T14:07:43.147Z,6.90
2022-11-23T14:09:22.599Z,6.80
2022-11-23T14:10:56.019Z,6.80
2022-11-23T14:12:36.166Z,6.80
2022-11-23T14:14:18.199Z,6.80
2022-11-23T14:15:58.686Z,6.80
2022-11-23T14:18:07.829Z,6.80
2022-11-23T14:19:50.124Z,6.80
2022-11-23T14:21:32.644Z,6.70
2022-11-23T14:23:25.239Z,6.70
2022-11-23T14:25:19.933Z,6.70
2022-11-23T14:27:17.776Z,6.70
2022-11-23T14:29:21.889Z,6.70
2022-11-23T14:31:13.572Z,6.70
2022-11-23T14:33:03.301Z,6.60
2022-11-23T14:34:45.792Z,6.60
2022-11-23T14:36:31.615Z,6.60
2022-11-23T14:38:39.061Z,6.60
2022-11-23T14:40:21.494Z,6.50
2022-11-23T14:41:59.796Z,6.50
2022-11-23T14:43:34.938Z,6.40
2022-11-23T14:45:14.323Z,6.40
2022-11-23T14:47:06.340Z,6.40
2022-11-23T14:48:39.456Z,6.30
2022-11-23T14:50:23.991Z,6.30
2022-11-23T14:51:57.600Z,6.20
2022-11-23T14:53:33.536Z,6.20
2022-11-23T14:55:07.653Z,6.20
2022-11-23T14:56:45.308Z,6.20
2022-11-23T14:58:18.593Z,6.10
2022-11-23T14:59:55.505Z,6.10
2022-11-23T15:01:29.193Z,6.10
2022-11-23T15:03:34.318Z,6.00
2022-11-23T15:05:08.688Z,6.00
2022-11-23T15:06:47.757Z,6.00
2022-11-23T15:08:25.882Z,5.90
2022-11-23T15:10:07.383Z,5.90
2022-11-23T15:11:40.489Z,5.90
2022-11-23T15:13:22.469Z,5.80
2022-11-23T15:14:58.499Z,5.80
2022-11-23T15:16:42.481Z,5.80
2022-11-23T15:18:28.390Z,5.80
2022-11-23T15:20:02.597Z,5.70
2022-11-23T15:21:35.988Z,5.70
2022-11-23T15:23:21.303Z,5.70
2022-11-23T15:24:54.807Z,5.60
2022-11-23T15:28:27.858Z,5.60
2022-11-23T15:30:01.579Z,5.50
2022-11-23T15:31:36.315Z,5.50
2022-11-23T15:33:12.167Z,5.40
2022-11-23T15:34:47.356Z,5.40
2022-11-23T15:36:25.467Z,5.30
2022-11-23T15:37:59.360Z,5.20
2022-11-23T15:39:32.772Z,5.20
2022-11-23T15:41:06.154Z,5.10
2022-11-23T15:42:39.446Z,5.10
2022-11-23T15:44:24.826Z,5.00
2022-11-23T15:46:05.390Z,5.00
2022-11-23T15:47:39.644Z,5.00
2022-11-23T15:49:15.601Z,4.90
2022-11-23T15:50:53.263Z,4.90
2022-11-23T15:52:30.020Z,4.90
2022-11-23T15:54:03.246Z,5.00
2022-11-23T15:55:36.600Z,5.00
2022-11-23T15:57:16.704Z,5.00
2022-11-23T15:58:50.736Z,5.00
2022-11-23T16:00:26.103Z,5.00
2022-11-23T16:02:00.979Z,5.00
2022-11-23T16:03:41.122Z,4.90
2022-11-23T16:05:15.806Z,4.90
2022-11-23T16:06:50.312Z,4.90
2022-11-23T16:08:26.346Z,4.80
2022-11-23T16:10:20.521Z,4.80
2022-11-23T16:11:53.623Z,4.80
2022-11-23T16:13:36.487Z,4.70
2022-11-23T16:15:32.476Z,4.60
2022-11-23T16:17:14.933Z,4.50
2022-11-23T16:18:52.060Z,4.40
2022-11-23T16:20:28.437Z,4.30
2022-11-23T16:22:05.442Z,4.20
2022-11-23T16:23:45.109Z,4.00
2022-11-23T16:25:25.179Z,3.80
2022-11-23T16:26:58.356Z,3.80
2022-11-23T16:28:33.345Z,3.70
2022-11-23T16:30:08.004Z,3.60
2022-11-23T16:31:42.168Z,3.60
2022-11-23T16:33:17.102Z,3.60
2022-11-23T16:34:50.178Z,3.60
2022-11-23T16:36:23.310Z,3.50
2022-11-23T16:37:57.754Z,3.50
2022-11-23T16:39:31.035Z,3.40
2022-11-23T16:41:04.349Z,3.40
2022-11-23T16:42:37.602Z,3.30
2022-11-23T16:44:10.695Z,3.20
2022-11-23T16:45:46.447Z,3.20
2022-11-23T16:47:27.410Z,3.10
2022-11-23T16:49:00.638Z,3.10
2022-11-23T16:50:35.106Z,3.10
2022-11-23T16:52:11.653Z,3.00
2022-11-23T16:54:12.374Z,3.00
2022-11-23T16:55:43.626Z,3.00
2022-11-23T16:57:35.650Z,3.00
2022-11-23T16:59:16.803Z,3.00
2022-11-23T17:00:50.221Z,3.00
2022-11-23T17:02:23.588Z,3.00
2022-11-23T17:03:56.878Z,3.10
2022-11-23T17:05:29.977Z,3.10
2022-11-23T17:07:03.108Z,3.10
2022-11-23T17:08:36.253Z,3.10
2022-11-23T17:10:11.153Z,3.10
2022-11-23T17:11:46.642Z,3.10
2022-11-23T17:13:23.143Z,3.10
2022-11-23T17:14:56.235Z,3.10
2022-11-23T17:16:30.884Z,3.00
2022-11-23T17:18:04.110Z,3.00
2022-11-23T17:19:38.495Z,3.10
2022-11-23T17:21:11.739Z,3.10
2022-11-23T17:22:45.288Z,3.10
2022-11-23T17:24:18.350Z,3.10
2022-11-23T17:25:52.776Z,3.10
2022-11-23T17:27:26.569Z,3.10
2022-11-23T17:29:02.244Z,3.20
2022-11-23T17:30:35.487Z,3.20
2022-11-23T17:32:12.184Z,3.20
2022-11-23T17:33:45.261Z,3.20
2022-11-23T17:35:18.607Z,3.10
2022-11-23T17:36:53.029Z,3.10
2022-11-23T17:38:28.123Z,3.10
2022-11-23T17:40:01.229Z,3.10
2022-11-23T17:41:35.628Z,3.10
2022-11-23T17:43:08.726Z,3.10
2022-11-23T17:44:41.979Z,3.20
2022-11-23T17:46:18.654Z,3.20
2022-11-23T17:47:51.827Z,3.20
2022-11-23T17:49:28.248Z,3.20
2022-11-23T17:51:01.392Z,3.10
2022-11-23T17:52:34.861Z,3.20
2022-11-23T17:54:08.147Z,3.20
2022-11-23T17:55:41.797Z,3.20
2022-11-23T17:57:17.632Z,3.20
2022-11-23T17:58:52.364Z,3.20
2022-11-23T18:00:25.522Z,3.20
2022-11-23T18:01:58.934Z,3.30
2022-11-23T18:03:32.078Z,3.30
2022-11-23T18:05:05.568Z,3.30
2022-11-23T18:06:38.616Z,3.30
2022-11-23T18:08:12.107Z,3.30
2022-11-23T18:09:45.173Z,3.30
2022-11-23T18:11:18.810Z,3.30
2022-11-23T18:12:53.284Z,3.30
2022-11-23T18:14:29.864Z,3.20
2022-11-23T18:16:03.412Z,3.20
2022-11-23T18:17:36.805Z,3.20
2022-11-23T18:19:09.874Z,3.30
2022-11-23T18:20:42.991Z,3.20
2022-11-23T18:22:16.274Z,3.30
2022-11-23T18:23:49.429Z,3.30
2022-11-23T18:25:22.497Z,3.30
2022-11-23T18:26:55.556Z,3.30
2022-11-23T18:28:30.675Z,3.30
2022-11-23T18:30:03.903Z,3.20
2022-11-23T18:31:37.038Z,3.20
2022-11-23T18:33:10.119Z,3.20
2022-11-23T18:34:43.238Z,3.10
2022-11-23T18:36:16.430Z,3.10
2022-11-23T18:37:49.533Z,3.10
2022-11-23T18:39:22.671Z,3.10
2022-11-23T18:40:55.939Z,3.10
2022-11-23T18:42:28.992Z,3.10
2022-11-23T18:44:03.459Z,3.00
2022-11-23T18:45:36.508Z,3.00
2022-11-23T18:47:09.668Z,3.00
2022-11-23T18:48:42.691Z,3.00
2022-11-23T18:50:15.876Z,3.00
2022-11-23T18:51:48.941Z,3.00
2022-11-23T18:53:23.101Z,3.00
2022-11-23T18:54:56.136Z,3.00
2022-11-23T18:56:29.204Z,3.00
2022-11-23T18:58:02.564Z,3.00
2022-11-23T19:01:30.360Z,2.90
2022-11-23T19:03:03.956Z,2.90
2022-11-23T19:04:38.685Z,2.90
2022-11-23T19:06:14.324Z,2.90
2022-11-23T19:07:48.045Z,2.90
2022-11-23T19:09:21.141Z,2.90
2022-11-23T19:10:54.192Z,2.90
2022-11-23T19:12:27.285Z,2.80
2022-11-23T19:14:02.288Z,2.90
2022-11-23T19:15:38.508Z,2.90
2022-11-23T19:17:11.583Z,2.90
2022-11-23T19:18:45.140Z,2.90
2022-11-23T19:20:20.452Z,2.90
2022-11-23T19:21:53.593Z,3.00
2022-11-23T19:23:29.668Z,3.00
2022-11-23T19:25:03.354Z,3.00
2022-11-23T19:26:38.206Z,3.00
2022-11-23T19:28:11.270Z,3.00
2022-11-23T19:29:44.360Z,2.90
2022-11-23T19:31:20.185Z,2.90
2022-11-23T19:32:53.312Z,3.00
2022-11-23T19:34:26.384Z,3.00
2022-11-23T19:36:06.012Z,2.90
2022-11-23T19:37:39.082Z,2.90
2022-11-23T19:39:12.239Z,2.90
2022-11-23T19:40:45.293Z,2.80
2022-11-23T19:42:18.396Z,2.80
2022-11-23T19:43:53.800Z,2.70
2022-11-23T19:45:30.302Z,2.70
2022-11-23T19:47:09.967Z,2.70
2022-11-23T19:48:47.994Z,2.70
2022-11-23T19:50:21.070Z,2.80
2022-11-23T19:51:56.136Z,2.70
2022-11-23T19:53:32.186Z,2.70
2022-11-23T19:55:08.298Z,2.70
2022-11-23T19:56:41.345Z,2.70
2022-11-23T19:58:15.331Z,2.70
2022-11-23T19:59:48.774Z,2.70
2022-11-23T20:01:24.557Z,2.70
2022-11-23T20:02:59.344Z,2.70
2022-11-23T20:04:32.800Z,2.60
2022-11-23T20:06:08.440Z,2.60
2022-11-23T20:07:41.530Z,2.60
2022-11-23T20:09:19.186Z,2.50
2022-11-23T20:10:52.512Z,2.50
2022-11-23T20:12:25.564Z,2.40
2022-11-23T20:13:59.531Z,2.30
2022-11-23T20:15:33.741Z,2.30
2022-11-23T20:17:06.791Z,2.30
2022-11-23T20:18:41.734Z,2.40
2022-11-23T20:20:14.857Z,2.50
2022-11-23T20:21:47.946Z,2.50
2022-11-23T20:23:20.981Z,2.50
2022-11-23T20:24:54.053Z,2.50
2022-11-23T20:26:27.373Z,2.40
2022-11-23T20:28:00.701Z,2.40
2022-11-23T20:29:34.021Z,2.40
2022-11-23T20:31:08.647Z,2.40
2022-11-23T20:32:41.730Z,2.30
2022-11-23T20:34:21.214Z,2.30
2022-11-23T20:35:56.044Z,2.40
2022-11-23T20:37:29.186Z,2.40
2022-11-23T20:39:03.862Z,2.40
2022-11-23T20:40:36.945Z,2.40
2022-11-23T20:42:09.998Z,2.50
2022-11-23T20:43:43.533Z,2.50
2022-11-23T20:45:16.817Z,2.40
2022-11-23T20:47:05.269Z,2.30
2022-11-23T20:48:40.487Z,2.20
2022-11-23T20:50:15.024Z,2.20
2022-11-23T20:51:48.122Z,2.10
2022-11-23T20:53:21.165Z,2.00
2022-11-23T20:54:54.247Z,2.00
2022-11-23T20:56:29.025Z,1.90
2022-11-23T20:58:02.087Z,1.90
2022-11-23T20:59:35.196Z,1.80
2022-11-23T21:01:10.358Z,1.70
2022-11-23T21:02:43.737Z,1.70
2022-11-23T21:04:16.891Z,1.60
2022-11-23T21:05:51.660Z,1.60
2022-11-23T21:07:24.811Z,1.50
2022-11-23T21:08:57.953Z,1.50
2022-11-23T21:10:48.290Z,1.50
2022-11-23T21:12:38.924Z,1.40
2022-11-23T21:14:17.987Z,1.30
2022-11-23T21:15:51.470Z,1.30
2022-11-23T21:17:24.667Z,1.20
2022-11-23T21:18:57.759Z,1.20
2022-11-23T21:20:36.256Z,1.20
2022-11-23T21:22:12.690Z,1.10
2022-11-23T21:23:48.194Z,1.20
2022-11-23T21:25:24.202Z,1.10
2022-11-23T21:26:57.296Z,1.10
2022-11-23T21:28:31.369Z,1.10
2022-11-23T21:30:05.159Z,1.00
2022-11-23T21:31:39.292Z,1.00
2022-11-23T21:33:12.435Z,1.00
2022-11-23T21:34:45.641Z,1.00
2022-11-23T21:36:19.096Z,1.10
2022-11-23T21:37:53.590Z,1.00
2022-11-23T21:39:26.724Z,0.90